createdAt,value
2023-04-18T00:00:24.910Z,67.87
2023-04-18T00:03:30.037Z,66.76
2023-04-18T00:06:33.126Z,66.62
2023-04-18T00:09:36.850Z,67.46
2023-04-18T00:12:40.415Z,66.84
2023-04-18T00:15:44.804Z,67.61
2023-04-18T00:18:48.258Z,67.96
2023-04-18T00:21:53.222Z,69.23
2023-04-18T00:24:56.039Z,69.31
2023-04-18T00:27:58.521Z,69.43
2023-04-18T00:31:01.169Z,69.09
2023-04-18T00:34:03.810Z,69.31
2023-04-18T00:37:07.196Z,70.00
2023-04-18T00:40:10.316Z,69.66
2023-04-18T00:43:14.935Z,68.28
2023-04-18T00:46:18.152Z,68.21
2023-04-18T00:49:22.211Z,68.55
2023-04-18T00:52:27.312Z,67.96
2023-04-18T00:55:29.965Z,68.40
2023-04-18T00:58:32.691Z,68.77
2023-04-18T01:01:35.483Z,68.47
2023-04-18T01:04:38.793Z,68.54
2023-04-18T01:07:45.541Z,68.12
2023-04-18T01:10:49.606Z,68.41
2023-04-18T01:14:02.559Z,68.30
2023-04-18T01:17:05.123Z,68.19
2023-04-18T01:20:09.601Z,68.16
2023-04-18T01:23:12.745Z,67.98
2023-04-18T01:26:15.492Z,67.67
2023-04-18T01:29:18.299Z,67.24
2023-04-18T01:32:21.669Z,67.82
2023-04-18T01:35:25.729Z,68.17
2023-04-18T01:38:33.172Z,67.56
2023-04-18T01:41:36.964Z,67.99
2023-04-18T01:44:39.507Z,67.60
2023-04-18T01:47:42.246Z,67.20
2023-04-18T01:50:47.368Z,67.42
2023-04-18T01:53:51.558Z,67.09
2023-04-18T01:56:54.371Z,66.84
2023-04-18T01:59:58.561Z,66.80
2023-04-18T02:03:01.676Z,65.99
2023-04-18T02:06:05.757Z,66.38
2023-04-18T02:09:08.351Z,66.79
2023-04-18T02:12:12.637Z,66.31
2023-04-18T02:15:15.727Z,66.29
2023-04-18T02:18:18.547Z,66.74
2023-04-18T02:21:22.742Z,66.68
2023-04-18T02:24:25.502Z,66.60
2023-04-18T02:27:30.794Z,66.54
2023-04-18T02:30:33.465Z,66.51
2023-04-18T02:33:38.774Z,66.96
2023-04-18T02:36:41.674Z,66.76
2023-04-18T02:39:46.495Z,67.56
2023-04-18T02:42:49.133Z,67.66
2023-04-18T02:45:51.829Z,68.11
2023-04-18T02:48:55.663Z,67.96
2023-04-18T02:52:01.284Z,67.67
2023-04-18T02:55:04.382Z,68.15
2023-04-18T02:58:12.810Z,68.84
2023-04-18T03:01:41.536Z,68.49
2023-04-18T03:04:47.820Z,68.92
2023-04-18T03:07:51.705Z,68.81
2023-04-18T03:10:56.451Z,69.34
2023-04-18T03:14:01.079Z,69.69
2023-04-18T03:17:11.547Z,68.43
2023-04-18T03:20:18.043Z,68.46
2023-04-18T03:23:20.762Z,67.85
2023-04-18T03:26:24.581Z,67.61
2023-04-18T03:29:28.819Z,68.03
2023-04-18T03:32:35.286Z,67.75
2023-04-18T03:35:38.527Z,67.06
2023-04-18T03:38:42.075Z,67.24
2023-04-18T03:41:45.000Z,67.47
2023-04-18T03:44:47.783Z,67.91
2023-04-18T03:47:50.601Z,68.50
2023-04-18T03:50:53.873Z,68.64
2023-04-18T03:53:57.600Z,68.24
2023-04-18T03:57:00.984Z,68.26
2023-04-18T04:00:08.130Z,68.07
2023-04-18T04:03:19.323Z,68.44
2023-04-18T04:06:22.871Z,68.02
2023-04-18T04:09:27.465Z,68.14
2023-04-18T04:12:31.480Z,68.64
2023-04-18T04:15:37.473Z,69.39
2023-04-18T04:18:42.773Z,68.89
2023-04-18T04:21:45.719Z,69.18
2023-04-18T04:24:51.735Z,69.18
2023-04-18T04:28:01.788Z,69.04
2023-04-18T04:31:08.434Z,69.54
2023-04-18T04:34:11.737Z,69.80
2023-04-18T04:37:15.216Z,70.37
2023-04-18T04:40:30.814Z,70.62
2023-04-18T04:43:51.347Z,70.22
2023-04-18T04:46:58.278Z,70.69
2023-04-18T04:50:11.734Z,71.22
2023-04-18T04:53:14.346Z,71.19
2023-04-18T04:56:17.271Z,71.63
2023-04-18T04:59:19.900Z,72.65
2023-04-18T05:02:23.922Z,72.36
2023-04-18T05:05:26.806Z,72.78
2023-04-18T05:08:29.324Z,71.47
2023-04-18T05:11:32.057Z,71.98
2023-04-18T05:14:34.672Z,71.16
2023-04-18T05:17:37.335Z,71.92
2023-04-18T05:20:40.523Z,71.56
2023-04-18T05:23:43.061Z,71.27
2023-04-18T05:26:46.221Z,71.33
2023-04-18T05:29:51.023Z,70.63
2023-04-18T05:32:53.616Z,70.76
2023-04-18T05:35:57.201Z,68.98
2023-04-18T05:38:59.974Z,68.60
2023-04-18T05:42:03.443Z,68.45
2023-04-18T05:45:06.420Z,67.92
2023-04-18T05:48:09.209Z,67.44
2023-04-18T05:51:11.972Z,66.64
2023-04-18T05:54:14.947Z,66.35
2023-04-18T05:57:17.629Z,65.40
2023-04-18T06:00:20.508Z,64.65
2023-04-18T06:03:23.495Z,64.72
2023-04-18T06:06:27.435Z,63.74
2023-04-18T06:09:30.217Z,63.59
2023-04-18T06:12:33.297Z,63.34
2023-04-18T06:15:35.876Z,63.26
2023-04-18T06:18:39.088Z,63.08
2023-04-18T06:21:42.883Z,62.99
2023-04-18T06:24:45.487Z,62.52
2023-04-18T06:27:48.236Z,61.65
2023-04-18T06:30:50.925Z,60.91
2023-04-18T06:33:53.548Z,60.08
2023-04-18T06:36:56.399Z,59.86
2023-04-18T06:39:59.023Z,59.07
2023-04-18T06:43:01.705Z,58.56
2023-04-18T06:46:06.300Z,57.72
2023-04-18T06:49:09.144Z,57.22
2023-04-18T06:52:11.776Z,56.58
2023-04-18T06:55:14.483Z,56.69
2023-04-18T06:58:17.270Z,56.54
2023-04-18T07:01:20.004Z,56.56
2023-04-18T07:04:23.147Z,56.06
2023-04-18T07:07:26.534Z,55.46
2023-04-18T07:10:30.786Z,54.10
2023-04-18T07:13:33.667Z,53.02
2023-04-18T07:16:36.804Z,53.34
2023-04-18T07:19:40.513Z,53.04
2023-04-18T07:22:43.019Z,52.50
2023-04-18T07:25:45.715Z,51.25
2023-04-18T07:28:49.230Z,50.95
2023-04-18T07:31:52.144Z,51.23
2023-04-18T07:34:55.505Z,50.28
2023-04-18T07:37:58.377Z,50.48
2023-04-18T07:41:02.018Z,49.53
2023-04-18T07:44:04.942Z,48.84
2023-04-18T07:47:11.699Z,48.92
2023-04-18T07:50:14.383Z,47.31
2023-04-18T07:53:17.334Z,45.62
2023-04-18T07:56:21.696Z,45.04
2023-04-18T07:59:24.167Z,44.32
2023-04-18T08:02:26.958Z,44.37
2023-04-18T08:05:30.812Z,43.05
2023-04-18T08:08:33.707Z,43.32
2023-04-18T08:11:36.417Z,42.49
2023-04-18T08:14:38.975Z,42.74
2023-04-18T08:17:44.028Z,42.70
2023-04-18T08:20:47.283Z,43.79
2023-04-18T08:23:50.274Z,44.06
2023-04-18T08:26:52.838Z,44.34
2023-04-18T08:29:55.980Z,44.65
2023-04-18T08:33:00.249Z,44.54
2023-04-18T08:36:03.284Z,44.35
2023-04-18T08:39:07.997Z,43.60
2023-04-18T08:42:11.519Z,44.46
2023-04-18T08:45:14.290Z,44.82
2023-04-18T08:48:18.505Z,44.06
2023-04-18T08:51:21.772Z,39.70
2023-04-18T08:54:25.571Z,36.89
2023-04-18T08:57:31.158Z,35.55
2023-04-18T09:00:34.280Z,35.78
2023-04-18T09:03:40.107Z,36.02
2023-04-18T09:06:52.569Z,35.23
2023-04-18T09:09:59.903Z,35.01
2023-04-18T09:13:04.426Z,35.59
2023-04-18T09:16:07.360Z,34.98
2023-04-18T09:19:18.806Z,33.71
2023-04-18T09:22:22.026Z,32.46
2023-04-18T09:25:29.476Z,32.11
2023-04-18T09:28:33.602Z,31.70
2023-04-18T09:31:55.097Z,31.10
2023-04-18T09:35:04.831Z,30.78
2023-04-18T09:38:08.818Z,29.90
2023-04-18T09:41:12.981Z,28.75
2023-04-18T09:44:17.150Z,27.59
2023-04-18T09:47:20.570Z,27.97
2023-04-18T09:50:23.363Z,27.15
2023-04-18T09:53:26.825Z,27.37
2023-04-18T09:56:32.726Z,28.17
2023-04-18T09:59:57.941Z,28.74
2023-04-18T10:03:11.041Z,30.96
2023-04-18T10:06:16.824Z,31.05
2023-04-18T10:09:21.304Z,30.29
2023-04-18T10:12:24.484Z,28.49
2023-04-18T10:15:29.629Z,25.12
2023-04-18T10:18:32.309Z,25.76
2023-04-18T10:21:34.998Z,23.80
2023-04-18T10:24:53.588Z,23.87
2023-04-18T10:27:58.541Z,23.04
2023-04-18T10:31:03.913Z,24.65
2023-04-18T10:34:07.414Z,26.23
2023-04-18T10:37:12.879Z,26.93
2023-04-18T10:40:15.852Z,26.96
2023-04-18T10:43:18.516Z,28.14
2023-04-18T10:46:31.862Z,27.19
2023-04-18T10:49:38.140Z,27.21
2023-04-18T10:52:41.792Z,27.25
2023-04-18T10:55:54.549Z,27.39
2023-04-18T10:59:01.541Z,27.84
2023-04-18T11:02:30.380Z,24.74
2023-04-18T11:05:33.422Z,21.79
2023-04-18T11:08:36.504Z,19.53
2023-04-18T11:11:39.415Z,22.01
2023-04-18T11:14:47.984Z,23.18
2023-04-18T11:18:04.617Z,22.51
2023-04-18T11:21:07.963Z,23.18
2023-04-18T11:24:11.690Z,24.84
2023-04-18T11:27:15.363Z,27.35
2023-04-18T11:30:18.745Z,28.38
2023-04-18T11:33:21.500Z,27.07
2023-04-18T11:36:24.141Z,27.65
2023-04-18T11:39:27.112Z,27.20
2023-04-18T11:42:33.263Z,27.48
2023-04-18T11:45:36.181Z,25.37
2023-04-18T11:48:41.110Z,26.18
2023-04-18T11:51:46.347Z,27.68
2023-04-18T11:54:49.152Z,25.13
2023-04-18T11:57:55.092Z,25.50
2023-04-18T12:00:57.913Z,25.57
2023-04-18T12:04:05.460Z,26.26
2023-04-18T12:07:08.464Z,24.75
2023-04-18T12:10:20.566Z,23.19
2023-04-18T12:13:31.094Z,20.08
2023-04-18T12:16:33.848Z,22.36
2023-04-18T12:19:37.315Z,23.54
2023-04-18T12:22:42.447Z,24.94
2023-04-18T12:25:45.836Z,24.56
2023-04-18T12:28:53.909Z,22.70
2023-04-18T12:31:56.870Z,19.14
2023-04-18T12:34:59.700Z,18.93
2023-04-18T12:38:03.155Z,21.24
2023-04-18T12:41:05.821Z,22.73
2023-04-18T12:44:09.389Z,23.56
2023-04-18T12:47:12.076Z,24.15
2023-04-18T12:50:20.606Z,24.46
2023-04-18T12:53:23.426Z,25.09
2023-04-18T12:56:26.077Z,25.75
2023-04-18T12:59:30.025Z,25.54
2023-04-18T13:02:35.349Z,24.96
2023-04-18T13:05:38.160Z,20.91
2023-04-18T13:08:40.914Z,14.54
2023-04-18T13:11:43.823Z,12.30
2023-04-18T13:14:46.571Z,11.46
2023-04-18T13:17:49.274Z,11.80
2023-04-18T13:20:52.658Z,11.72
2023-04-18T13:23:55.561Z,15.19
2023-04-18T13:26:59.293Z,12.26
2023-04-18T13:30:02.820Z,10.96
2023-04-18T13:33:06.616Z,12.16
2023-04-18T13:36:09.482Z,12.67
2023-04-18T13:39:13.257Z,14.82
2023-04-18T13:42:16.366Z,12.01
2023-04-18T13:45:20.654Z,11.55
2023-04-18T13:48:23.402Z,10.58
2023-04-18T13:51:27.785Z,10.37
2023-04-18T13:54:32.055Z,9.73
2023-04-18T13:57:37.009Z,9.85
2023-04-18T14:00:39.818Z,9.65
2023-04-18T14:03:43.905Z,10.40
2023-04-18T14:06:48.821Z,11.02
2023-04-18T14:09:53.731Z,11.55
2023-04-18T14:12:57.396Z,12.13
2023-04-18T14:16:01.283Z,11.61
2023-04-18T14:19:04.074Z,12.33
2023-04-18T14:22:09.435Z,12.58
2023-04-18T14:25:14.205Z,16.60
2023-04-18T14:28:19.230Z,19.59
2023-04-18T14:31:22.833Z,19.99
2023-04-18T14:34:25.573Z,19.98
2023-04-18T14:37:28.327Z,20.15
2023-04-18T14:40:32.734Z,20.35
2023-04-18T14:43:35.799Z,21.14
2023-04-18T14:46:38.583Z,22.05
2023-04-18T14:49:41.419Z,21.58
2023-04-18T14:52:45.790Z,21.20
2023-04-18T14:55:48.343Z,22.36
2023-04-18T14:58:51.187Z,21.87
2023-04-18T15:01:54.491Z,22.27
2023-04-18T15:04:57.664Z,22.15
2023-04-18T15:08:01.297Z,21.56
2023-04-18T15:11:08.389Z,22.18
2023-04-18T15:14:11.853Z,21.99
2023-04-18T15:17:14.437Z,21.79
2023-04-18T15:20:17.012Z,20.86
2023-04-18T15:23:19.939Z,22.51
2023-04-18T15:26:22.555Z,22.08
2023-04-18T15:29:25.071Z,22.98
2023-04-18T15:32:27.840Z,23.52
2023-04-18T15:35:30.545Z,24.18
2023-04-18T15:38:33.378Z,24.57
2023-04-18T15:41:37.442Z,24.66
2023-04-18T15:44:40.415Z,25.26
2023-04-18T15:47:43.050Z,25.63
2023-04-18T15:50:51.251Z,25.76
2023-04-18T15:53:53.977Z,25.88
2023-04-18T15:56:56.941Z,25.74
2023-04-18T15:59:59.784Z,25.86
2023-04-18T16:03:02.415Z,25.85
2023-04-18T16:06:05.571Z,25.64
2023-04-18T16:09:08.334Z,26.35
2023-04-18T16:12:11.006Z,26.09
2023-04-18T16:15:14.938Z,26.66
2023-04-18T16:18:17.410Z,28.26
2023-04-18T16:21:21.013Z,28.49
2023-04-18T16:24:25.617Z,28.21
2023-04-18T16:27:28.607Z,28.76
2023-04-18T16:30:31.215Z,29.11
2023-04-18T16:33:33.883Z,30.18
2023-04-18T16:36:36.597Z,30.33
2023-04-18T16:39:39.506Z,29.83
2023-04-18T16:42:42.252Z,29.69
2023-04-18T16:45:45.202Z,28.95
2023-04-18T16:48:49.029Z,29.68
2023-04-18T16:51:53.081Z,29.32
2023-04-18T16:54:55.984Z,30.24
2023-04-18T16:57:59.700Z,30.10
2023-04-18T17:01:02.811Z,29.46
2023-04-18T17:04:07.175Z,29.49
2023-04-18T17:07:09.954Z,29.53
2023-04-18T17:10:12.956Z,29.96
2023-04-18T17:13:15.628Z,30.79
2023-04-18T17:16:18.759Z,30.96
2023-04-18T17:19:21.524Z,30.77
2023-04-18T17:22:24.666Z,31.44
2023-04-18T17:25:29.164Z,31.11
2023-04-18T17:28:32.522Z,31.76
2023-04-18T17:31:37.118Z,32.03
2023-04-18T17:34:40.668Z,31.44
2023-04-18T17:37:44.327Z,31.53
2023-04-18T17:40:50.820Z,31.91
2023-04-18T17:43:54.540Z,32.25
2023-04-18T17:46:58.285Z,31.83
2023-04-18T17:50:01.712Z,32.11
2023-04-18T17:53:06.459Z,32.26
2023-04-18T17:56:10.879Z,32.93
2023-04-18T17:59:15.068Z,33.17
2023-04-18T18:02:20.358Z,33.68
2023-04-18T18:05:23.702Z,33.66
2023-04-18T18:08:26.754Z,34.75
2023-04-18T18:11:33.164Z,34.87
2023-04-18T18:14:37.143Z,34.80
2023-04-18T18:17:40.322Z,35.04
2023-04-18T18:20:43.857Z,35.14
2023-04-18T18:23:47.289Z,35.25
2023-04-18T18:26:51.744Z,35.49
2023-04-18T18:29:55.374Z,35.06
2023-04-18T18:32:58.693Z,35.01
2023-04-18T18:36:02.585Z,34.74
2023-04-18T18:39:05.958Z,34.60
2023-04-18T18:42:10.430Z,35.24
2023-04-18T18:45:13.937Z,35.00
2023-04-18T18:48:16.856Z,35.25
2023-04-18T18:51:20.176Z,35.01
2023-04-18T18:54:23.495Z,34.67
2023-04-18T18:57:28.303Z,34.76
2023-04-18T19:00:32.984Z,35.20
2023-04-18T19:03:38.330Z,35.11
2023-04-18T19:06:42.479Z,35.19
2023-04-18T19:09:46.999Z,35.44
2023-04-18T19:12:50.499Z,35.31
2023-04-18T19:15:54.591Z,36.00
2023-04-18T19:18:58.414Z,34.52
2023-04-18T19:22:02.669Z,34.19
2023-04-18T19:25:08.366Z,34.24
2023-04-18T19:28:13.597Z,35.26
2023-04-18T19:31:17.391Z,35.75
2023-04-18T19:34:22.735Z,36.04
2023-04-18T19:37:27.121Z,36.04
2023-04-18T19:40:30.775Z,36.36
2023-04-18T19:43:38.279Z,36.94
2023-04-18T19:46:42.245Z,36.93
2023-04-18T19:49:45.544Z,37.01
2023-04-18T19:52:51.143Z,36.76
2023-04-18T19:59:12.388Z,37.15
2023-04-18T20:02:16.524Z,36.71
2023-04-18T20:05:21.324Z,36.01
2023-04-18T20:08:28.982Z,36.65
2023-04-18T20:11:32.579Z,35.86
2023-04-18T20:14:36.022Z,35.91
2023-04-18T20:17:39.730Z,35.43
2023-04-18T20:20:43.778Z,35.46
2023-04-18T20:23:47.937Z,35.98
2023-04-18T20:26:52.053Z,35.91
2023-04-18T20:29:57.258Z,36.20
2023-04-18T20:33:01.461Z,35.99
2023-04-18T20:36:07.289Z,36.15
2023-04-18T20:39:11.003Z,36.83
2023-04-18T20:42:14.820Z,35.60
2023-04-18T20:45:18.064Z,35.84
2023-04-18T20:48:21.775Z,36.09
2023-04-18T20:51:25.650Z,35.79
2023-04-18T20:54:29.160Z,36.08
2023-04-18T20:57:31.924Z,35.97
2023-04-18T21:00:35.288Z,36.37
2023-04-18T21:03:38.332Z,36.77
2023-04-18T21:06:41.335Z,37.55
2023-04-18T21:09:44.012Z,37.21
2023-04-18T21:12:46.772Z,37.20
2023-04-18T21:15:52.095Z,37.24
2023-04-18T21:18:56.037Z,38.38
2023-04-18T21:21:58.947Z,38.26
2023-04-18T21:25:01.599Z,37.87
2023-04-18T21:28:04.815Z,38.24
2023-04-18T21:31:08.415Z,38.33
2023-04-18T21:34:11.404Z,38.04
2023-04-18T21:37:13.890Z,38.45
2023-04-18T21:40:16.682Z,38.43
2023-04-18T21:43:19.197Z,38.71
2023-04-18T21:46:21.863Z,39.04
2023-04-18T21:49:24.694Z,38.97
2023-04-18T21:52:27.275Z,38.92
2023-04-18T21:55:30.077Z,39.03
2023-04-18T21:58:32.826Z,39.03
2023-04-18T22:01:38.262Z,39.03
2023-04-18T22:04:42.671Z,39.31
2023-04-18T22:07:54.970Z,39.58
2023-04-18T22:11:01.169Z,40.37
2023-04-18T22:14:03.934Z,40.18
2023-04-18T22:17:06.866Z,40.25
2023-04-18T22:20:11.440Z,40.10
2023-04-18T22:23:14.190Z,40.53
2023-04-18T22:26:17.040Z,40.75
2023-04-18T22:29:19.652Z,41.08
2023-04-18T22:32:22.397Z,41.34
2023-04-18T22:35:26.258Z,41.04
2023-04-18T22:38:29.316Z,40.90
2023-04-18T22:41:31.904Z,40.60
2023-04-18T22:44:34.691Z,40.56
2023-04-18T22:47:37.543Z,40.19
2023-04-18T22:50:42.707Z,40.24
2023-04-18T22:53:46.954Z,40.36
2023-04-18T22:56:49.781Z,40.83
2023-04-18T22:59:52.597Z,40.60
2023-04-18T23:02:55.236Z,40.45
2023-04-18T23:05:58.283Z,40.70
2023-04-18T23:09:03.046Z,40.70
2023-04-18T23:12:06.886Z,40.49
2023-04-18T23:15:09.828Z,40.23
2023-04-18T23:18:12.496Z,39.91
2023-04-18T23:21:15.056Z,39.67
2023-04-18T23:24:17.910Z,39.77
2023-04-18T23:27:20.651Z,39.47
2023-04-18T23:30:23.243Z,39.37
2023-04-18T23:33:26.799Z,39.43
2023-04-18T23:36:29.801Z,39.53
2023-04-18T23:39:34.225Z,39.13
2023-04-18T23:42:37.263Z,39.43
2023-04-18T23:45:42.582Z,39.23
2023-04-18T23:48:46.140Z,39.13
2023-04-18T23:51:48.943Z,39.41
2023-04-18T23:54:52.001Z,39.14
2023-04-18T23:57:54.651Z,39.01
